sensor_id;sensor_type;location;lat;lon;timestamp;temperature;humidity
31575;DHT22;18182;1.328;103.810;2023-04-03T00:00:43;28.30;99.90
31575;DHT22;18182;1.328;103.810;2023-04-03T00:03:09;28.40;99.90
31575;DHT22;18182;1.328;103.810;2023-04-03T00:05:35;28.40;99.90
31575;DHT22;18182;1.328;103.810;2023-04-03T00:08:01;28.30;99.90
31575;DHT22;18182;1.328;103.810;2023-04-03T00:10:28;28.30;99.90
31575;DHT22;18182;1.328;103.810;2023-04-03T00:12:54;28.30;99.90
31575;DHT22;18182;1.328;103.810;2023-04-03T00:15:20;28.30;99.90
31575;DHT22;18182;1.328;103.810;2023-04-03T00:17:46;28.20;99.90
31575;DHT22;18182;1.328;103.810;2023-04-03T00:20:12;28.10;99.90
31575;DHT22;18182;1.328;103.810;2023-04-03T00:22:39;28.00;99.90
31575;DHT22;18182;1.328;103.810;2023-04-03T00:25:07;27.90;99.90
31575;DHT22;18182;1.328;103.810;2023-04-03T00:27:35;27.90;99.90
31575;DHT22;18182;1.328;103.810;2023-04-03T00:30:02;27.80;99.90
31575;DHT22;18182;1.328;103.810;2023-04-03T00:32:28;27.50;99.90
31575;DHT22;18182;1.328;103.810;2023-04-03T00:34:54;27.20;99.90
31575;DHT22;18182;1.328;103.810;2023-04-03T00:37:20;26.90;99.90
31575;DHT22;18182;1.328;103.810;2023-04-03T00:39:46;27.00;99.90
31575;DHT22;18182;1.328;103.810;2023-04-03T00:42:13;27.10;99.90
31575;DHT22;18182;1.328;103.810;2023-04-03T00:47:05;27.50;99.90
31575;DHT22;18182;1.328;103.810;2023-04-03T00:49:32;27.60;99.90
31575;DHT22;18182;1.328;103.810;2023-04-03T00:51:59;27.70;99.90
31575;DHT22;18182;1.328;103.810;2023-04-03T00:54:25;27.80;99.90
31575;DHT22;18182;1.328;103.810;2023-04-03T00:56:52;27.70;99.90
31575;DHT22;18182;1.328;103.810;2023-04-03T00:59:24;27.60;99.90
31575;DHT22;18182;1.328;103.810;2023-04-03T01:01:52;27.60;99.90
31575;DHT22;18182;1.328;103.810;2023-04-03T01:04:30;27.50;99.90
31575;DHT22;18182;1.328;103.810;2023-04-03T01:06:58;27.50;99.90
31575;DHT22;18182;1.328;103.810;2023-04-03T01:09:25;27.50;99.90
31575;DHT22;18182;1.328;103.810;2023-04-03T01:11:51;27.40;99.90
31575;DHT22;18182;1.328;103.810;2023-04-03T01:14:17;27.40;99.90
31575;DHT22;18182;1.328;103.810;2023-04-03T01:16:51;27.50;99.90
31575;DHT22;18182;1.328;103.810;2023-04-03T01:19:17;27.50;99.90
31575;DHT22;18182;1.328;103.810;2023-04-03T01:26:46;27.70;99.90
31575;DHT22;18182;1.328;103.810;2023-04-03T01:29:12;27.70;99.90
31575;DHT22;18182;1.328;103.810;2023-04-03T01:31:46;27.60;99.90
31575;DHT22;18182;1.328;103.810;2023-04-03T01:34:12;27.50;99.90
31575;DHT22;18182;1.328;103.810;2023-04-03T01:36:38;27.50;99.90
31575;DHT22;18182;1.328;103.810;2023-04-03T01:39:05;27.50;99.90
31575;DHT22;18182;1.328;103.810;2023-04-03T01:41:31;27.60;99.90
31575;DHT22;18182;1.328;103.810;2023-04-03T01:43:57;27.60;99.90
31575;DHT22;18182;1.328;103.810;2023-04-03T01:46:24;27.70;99.90
31575;DHT22;18182;1.328;103.810;2023-04-03T01:48:50;27.70;99.90
31575;DHT22;18182;1.328;103.810;2023-04-03T01:51:16;27.70;99.90
31575;DHT22;18182;1.328;103.810;2023-04-03T01:53:42;27.70;99.90
31575;DHT22;18182;1.328;103.810;2023-04-03T01:56:08;27.70;99.90
31575;DHT22;18182;1.328;103.810;2023-04-03T01:58:35;27.70;99.90
31575;DHT22;18182;1.328;103.810;2023-04-03T02:01:01;27.70;99.90
31575;DHT22;18182;1.328;103.810;2023-04-03T02:03:27;27.70;99.90
31575;DHT22;18182;1.328;103.810;2023-04-03T02:05:53;27.70;99.90
31575;DHT22;18182;1.328;103.810;2023-04-03T02:08:20;27.70;99.90
31575;DHT22;18182;1.328;103.810;2023-04-03T02:10:49;27.70;99.90
31575;DHT22;18182;1.328;103.810;2023-04-03T02:13:16;27.50;99.90
31575;DHT22;18182;1.328;103.810;2023-04-03T02:15:42;27.40;99.90
31575;DHT22;18182;1.328;103.810;2023-04-03T02:18:08;27.40;99.90
31575;DHT22;18182;1.328;103.810;2023-04-03T02:20:35;27.40;99.90
31575;DHT22;18182;1.328;103.810;2023-04-03T02:23:01;27.40;99.90
31575;DHT22;18182;1.328;103.810;2023-04-03T02:25:28;27.50;99.90
31575;DHT22;18182;1.328;103.810;2023-04-03T02:27:54;27.50;99.90
31575;DHT22;18182;1.328;103.810;2023-04-03T02:30:20;27.50;99.90
31575;DHT22;18182;1.328;103.810;2023-04-03T02:32:46;27.50;99.90
31575;DHT22;18182;1.328;103.810;2023-04-03T02:35:12;27.50;99.90
31575;DHT22;18182;1.328;103.810;2023-04-03T02:37:39;27.60;99.90
31575;DHT22;18182;1.328;103.810;2023-04-03T02:40:05;27.60;99.90
31575;DHT22;18182;1.328;103.810;2023-04-03T02:42:31;27.70;99.90
31575;DHT22;18182;1.328;103.810;2023-04-03T02:45:01;27.70;99.90
31575;DHT22;18182;1.328;103.810;2023-04-03T02:47:27;27.70;99.90
31575;DHT22;18182;1.328;103.810;2023-04-03T02:49:53;27.70;99.90
31575;DHT22;18182;1.328;103.810;2023-04-03T02:52:20;27.70;99.90
31575;DHT22;18182;1.328;103.810;2023-04-03T02:54:46;27.70;99.90
31575;DHT22;18182;1.328;103.810;2023-04-03T02:57:12;27.70;99.90
31575;DHT22;18182;1.328;103.810;2023-04-03T02:59:38;27.70;99.90
31575;DHT22;18182;1.328;103.810;2023-04-03T03:02:07;27.80;99.90
31575;DHT22;18182;1.328;103.810;2023-04-03T03:04:34;27.80;99.90
31575;DHT22;18182;1.328;103.810;2023-04-03T03:07:00;27.80;99.90
31575;DHT22;18182;1.328;103.810;2023-04-03T03:09:26;27.90;99.90
31575;DHT22;18182;1.328;103.810;2023-04-03T03:11:52;28.00;99.90
31575;DHT22;18182;1.328;103.810;2023-04-03T03:14:18;28.00;99.90
31575;DHT22;18182;1.328;103.810;2023-04-03T03:16:44;28.10;99.90
31575;DHT22;18182;1.328;103.810;2023-04-03T03:19:11;28.10;99.90
31575;DHT22;18182;1.328;103.810;2023-04-03T03:21:37;28.20;99.90
31575;DHT22;18182;1.328;103.810;2023-04-03T03:24:03;28.30;99.90
31575;DHT22;18182;1.328;103.810;2023-04-03T03:26:29;28.40;99.90
31575;DHT22;18182;1.328;103.810;2023-04-03T03:28:56;28.40;99.90
31575;DHT22;18182;1.328;103.810;2023-04-03T03:31:22;28.50;99.90
31575;DHT22;18182;1.328;103.810;2023-04-03T03:33:48;28.50;99.90
31575;DHT22;18182;1.328;103.810;2023-04-03T03:36:14;28.50;99.90
31575;DHT22;18182;1.328;103.810;2023-04-03T03:38:41;28.60;99.90
31575;DHT22;18182;1.328;103.810;2023-04-03T03:41:07;28.70;99.90
31575;DHT22;18182;1.328;103.810;2023-04-03T03:43:33;28.70;99.90
31575;DHT22;18182;1.328;103.810;2023-04-03T03:45:59;28.80;99.90
31575;DHT22;18182;1.328;103.810;2023-04-03T03:48:25;28.80;99.90
31575;DHT22;18182;1.328;103.810;2023-04-03T03:50:51;28.80;99.90
31575;DHT22;18182;1.328;103.810;2023-04-03T03:53:17;28.90;99.90
31575;DHT22;18182;1.328;103.810;2023-04-03T03:55:44;28.90;99.90
31575;DHT22;18182;1.328;103.810;2023-04-03T03:58:10;28.90;99.90
31575;DHT22;18182;1.328;103.810;2023-04-03T04:00:37;28.90;99.90
31575;DHT22;18182;1.328;103.810;2023-04-03T04:03:03;28.90;99.90
31575;DHT22;18182;1.328;103.810;2023-04-03T04:05:29;28.80;99.90
31575;DHT22;18182;1.328;103.810;2023-04-03T04:07:56;28.80;99.90
31575;DHT22;18182;1.328;103.810;2023-04-03T04:10:22;28.70;99.90
31575;DHT22;18182;1.328;103.810;2023-04-03T04:12:48;28.80;99.90
31575;DHT22;18182;1.328;103.810;2023-04-03T04:15:16;28.70;99.90
31575;DHT22;18182;1.328;103.810;2023-04-03T04:17:43;28.70;99.90
31575;DHT22;18182;1.328;103.810;2023-04-03T04:20:09;28.70;99.90
31575;DHT22;18182;1.328;103.810;2023-04-03T04:22:36;28.60;99.90
31575;DHT22;18182;1.328;103.810;2023-04-03T04:25:04;28.70;99.90
31575;DHT22;18182;1.328;103.810;2023-04-03T04:27:30;28.80;99.90
31575;DHT22;18182;1.328;103.810;2023-04-03T04:29:56;28.80;99.90
31575;DHT22;18182;1.328;103.810;2023-04-03T04:32:23;28.70;99.90
31575;DHT22;18182;1.328;103.810;2023-04-03T04:34:49;28.70;99.90
31575;DHT22;18182;1.328;103.810;2023-04-03T04:37:15;28.60;99.90
31575;DHT22;18182;1.328;103.810;2023-04-03T04:39:41;28.70;99.90
31575;DHT22;18182;1.328;103.810;2023-04-03T04:42:08;28.60;99.90
31575;DHT22;18182;1.328;103.810;2023-04-03T04:44:38;28.60;99.90
31575;DHT22;18182;1.328;103.810;2023-04-03T04:47:04;28.70;99.90
31575;DHT22;18182;1.328;103.810;2023-04-03T04:49:31;28.60;99.90
31575;DHT22;18182;1.328;103.810;2023-04-03T04:51:57;28.60;99.90
31575;DHT22;18182;1.328;103.810;2023-04-03T04:54:23;28.70;99.90
31575;DHT22;18182;1.328;103.810;2023-04-03T04:56:49;28.70;99.90
31575;DHT22;18182;1.328;103.810;2023-04-03T04:59:15;28.70;99.90
31575;DHT22;18182;1.328;103.810;2023-04-03T05:01:41;28.70;99.90
31575;DHT22;18182;1.328;103.810;2023-04-03T05:04:07;28.70;99.90
31575;DHT22;18182;1.328;103.810;2023-04-03T05:06:34;28.70;99.90
31575;DHT22;18182;1.328;103.810;2023-04-03T05:09:01;28.70;99.90
31575;DHT22;18182;1.328;103.810;2023-04-03T05:11:27;28.70;99.90
31575;DHT22;18182;1.328;103.810;2023-04-03T05:13:53;28.60;99.90
31575;DHT22;18182;1.328;103.810;2023-04-03T05:16:19;28.60;99.90
31575;DHT22;18182;1.328;103.810;2023-04-03T05:18:45;28.50;99.90
31575;DHT22;18182;1.328;103.810;2023-04-03T05:21:11;28.60;99.90
31575;DHT22;18182;1.328;103.810;2023-04-03T05:23:37;28.60;99.90
31575;DHT22;18182;1.328;103.810;2023-04-03T05:26:04;28.60;99.90
31575;DHT22;18182;1.328;103.810;2023-04-03T05:28:31;28.70;99.90
31575;DHT22;18182;1.328;103.810;2023-04-03T05:30:58;28.70;99.90
31575;DHT22;18182;1.328;103.810;2023-04-03T05:33:24;28.80;99.90
31575;DHT22;18182;1.328;103.810;2023-04-03T05:35:52;28.80;99.90
31575;DHT22;18182;1.328;103.810;2023-04-03T05:38:18;28.90;99.90
31575;DHT22;18182;1.328;103.810;2023-04-03T05:40:45;28.80;99.90
31575;DHT22;18182;1.328;103.810;2023-04-03T05:43:11;28.70;99.90
31575;DHT22;18182;1.328;103.810;2023-04-03T05:45:38;28.60;99.90
31575;DHT22;18182;1.328;103.810;2023-04-03T05:48:04;28.60;99.90
31575;DHT22;18182;1.328;103.810;2023-04-03T05:50:30;28.60;99.90
31575;DHT22;18182;1.328;103.810;2023-04-03T05:52:57;28.50;99.90
31575;DHT22;18182;1.328;103.810;2023-04-03T05:55:24;28.50;99.90
31575;DHT22;18182;1.328;103.810;2023-04-03T05:57:50;28.50;99.90
31575;DHT22;18182;1.328;103.810;2023-04-03T06:00:16;28.50;99.90
31575;DHT22;18182;1.328;103.810;2023-04-03T06:02:43;28.50;99.90
31575;DHT22;18182;1.328;103.810;2023-04-03T06:05:09;28.50;99.90
31575;DHT22;18182;1.328;103.810;2023-04-03T06:07:37;28.40;99.90
31575;DHT22;18182;1.328;103.810;2023-04-03T06:10:03;28.30;99.90
31575;DHT22;18182;1.328;103.810;2023-04-03T06:12:30;28.30;99.90
31575;DHT22;18182;1.328;103.810;2023-04-03T06:14:57;28.30;99.90
31575;DHT22;18182;1.328;103.810;2023-04-03T06:17:23;28.30;99.90
31575;DHT22;18182;1.328;103.810;2023-04-03T06:19:50;28.40;99.90
31575;DHT22;18182;1.328;103.810;2023-04-03T06:22:16;28.50;99.90
31575;DHT22;18182;1.328;103.810;2023-04-03T06:24:42;28.60;99.90
31575;DHT22;18182;1.328;103.810;2023-04-03T06:27:09;28.60;99.90
31575;DHT22;18182;1.328;103.810;2023-04-03T06:29:36;28.70;99.90
31575;DHT22;18182;1.328;103.810;2023-04-03T06:32:02;28.70;99.90
31575;DHT22;18182;1.328;103.810;2023-04-03T06:34:28;28.70;99.90
31575;DHT22;18182;1.328;103.810;2023-04-03T06:36:55;28.80;99.90
31575;DHT22;18182;1.328;103.810;2023-04-03T06:39:21;28.80;99.90
31575;DHT22;18182;1.328;103.810;2023-04-03T06:41:50;28.80;99.90
31575;DHT22;18182;1.328;103.810;2023-04-03T06:44:17;28.80;99.90
31575;DHT22;18182;1.328;103.810;2023-04-03T06:46:43;28.80;99.90
31575;DHT22;18182;1.328;103.810;2023-04-03T06:49:10;28.80;99.90
31575;DHT22;18182;1.328;103.810;2023-04-03T06:51:36;28.80;99.90
31575;DHT22;18182;1.328;103.810;2023-04-03T06:54:03;28.80;99.90
31575;DHT22;18182;1.328;103.810;2023-04-03T06:56:30;28.80;99.90
31575;DHT22;18182;1.328;103.810;2023-04-03T06:58:56;28.80;99.90
31575;DHT22;18182;1.328;103.810;2023-04-03T07:01:28;28.90;99.90
31575;DHT22;18182;1.328;103.810;2023-04-03T07:03:54;28.90;99.90
31575;DHT22;18182;1.328;103.810;2023-04-03T07:06:20;28.90;99.90
31575;DHT22;18182;1.328;103.810;2023-04-03T07:08:47;29.00;99.90
31575;DHT22;18182;1.328;103.810;2023-04-03T07:11:16;29.00;99.90
31575;DHT22;18182;1.328;103.810;2023-04-03T07:13:42;29.00;99.90
31575;DHT22;18182;1.328;103.810;2023-04-03T07:16:08;29.00;99.90
31575;DHT22;18182;1.328;103.810;2023-04-03T07:18:35;29.10;99.90
31575;DHT22;18182;1.328;103.810;2023-04-03T07:21:01;29.10;99.90
31575;DHT22;18182;1.328;103.810;2023-04-03T07:23:28;29.10;99.90
31575;DHT22;18182;1.328;103.810;2023-04-03T07:25:54;29.10;99.90
31575;DHT22;18182;1.328;103.810;2023-04-03T07:28:21;29.00;99.90
31575;DHT22;18182;1.328;103.810;2023-04-03T07:30:52;29.10;99.90
31575;DHT22;18182;1.328;103.810;2023-04-03T07:33:19;29.10;99.90
31575;DHT22;18182;1.328;103.810;2023-04-03T07:35:46;29.10;99.90
31575;DHT22;18182;1.328;103.810;2023-04-03T07:38:12;29.10;99.90
31575;DHT22;18182;1.328;103.810;2023-04-03T07:40:38;29.10;99.90
31575;DHT22;18182;1.328;103.810;2023-04-03T07:43:05;29.10;99.90
31575;DHT22;18182;1.328;103.810;2023-04-03T07:45:33;29.10;99.90
31575;DHT22;18182;1.328;103.810;2023-04-03T07:48:00;29.20;99.90
31575;DHT22;18182;1.328;103.810;2023-04-03T07:50:26;29.20;99.90
31575;DHT22;18182;1.328;103.810;2023-04-03T07:52:52;29.20;99.90
31575;DHT22;18182;1.328;103.810;2023-04-03T07:55:21;29.20;99.90
31575;DHT22;18182;1.328;103.810;2023-04-03T07:57:48;29.30;99.90
31575;DHT22;18182;1.328;103.810;2023-04-03T08:00:14;29.30;99.90
31575;DHT22;18182;1.328;103.810;2023-04-03T08:02:43;29.30;99.90
31575;DHT22;18182;1.328;103.810;2023-04-03T08:05:10;29.40;99.90
31575;DHT22;18182;1.328;103.810;2023-04-03T08:07:37;29.30;99.90
31575;DHT22;18182;1.328;103.810;2023-04-03T08:10:03;29.30;99.90
31575;DHT22;18182;1.328;103.810;2023-04-03T08:12:30;29.40;99.90
31575;DHT22;18182;1.328;103.810;2023-04-03T08:14:59;29.50;99.90
31575;DHT22;18182;1.328;103.810;2023-04-03T08:17:25;29.50;99.90
31575;DHT22;18182;1.328;103.810;2023-04-03T08:19:51;29.50;99.90
31575;DHT22;18182;1.328;103.810;2023-04-03T08:22:17;29.50;99.90
31575;DHT22;18182;1.328;103.810;2023-04-03T08:24:44;29.50;99.90
31575;DHT22;18182;1.328;103.810;2023-04-03T08:27:10;29.50;99.90
31575;DHT22;18182;1.328;103.810;2023-04-03T08:29:36;29.50;99.90
31575;DHT22;18182;1.328;103.810;2023-04-03T08:32:04;29.40;99.90
31575;DHT22;18182;1.328;103.810;2023-04-03T08:34:30;29.40;99.90
31575;DHT22;18182;1.328;103.810;2023-04-03T08:37:00;29.50;99.90
31575;DHT22;18182;1.328;103.810;2023-04-03T08:39:27;29.50;99.90
31575;DHT22;18182;1.328;103.810;2023-04-03T08:41:55;29.50;99.90
31575;DHT22;18182;1.328;103.810;2023-04-03T08:44:46;29.60;99.90
31575;DHT22;18182;1.328;103.810;2023-04-03T08:47:32;29.60;99.90
31575;DHT22;18182;1.328;103.810;2023-04-03T08:50:02;29.70;99.90
31575;DHT22;18182;1.328;103.810;2023-04-03T08:55:00;29.70;99.90
31575;DHT22;18182;1.328;103.810;2023-04-03T08:59:53;29.60;99.90
31575;DHT22;18182;1.328;103.810;2023-04-03T09:02:33;29.60;99.90
31575;DHT22;18182;1.328;103.810;2023-04-03T09:05:01;29.60;99.90
31575;DHT22;18182;1.328;103.810;2023-04-03T09:07:47;29.60;99.90
31575;DHT22;18182;1.328;103.810;2023-04-03T09:10:15;29.60;99.90
31575;DHT22;18182;1.328;103.810;2023-04-03T09:12:45;29.60;99.90
31575;DHT22;18182;1.328;103.810;2023-04-03T09:17:58;29.60;99.90
31575;DHT22;18182;1.328;103.810;2023-04-03T09:22:57;29.50;99.90
31575;DHT22;18182;1.328;103.810;2023-04-03T09:25:42;29.50;99.90
31575;DHT22;18182;1.328;103.810;2023-04-03T09:28:09;29.50;99.90
31575;DHT22;18182;1.328;103.810;2023-04-03T09:30:35;29.40;99.90
31575;DHT22;18182;1.328;103.810;2023-04-03T09:33:02;29.40;99.90
31575;DHT22;18182;1.328;103.810;2023-04-03T09:35:29;29.40;99.90
31575;DHT22;18182;1.328;103.810;2023-04-03T09:40:39;29.40;99.90
31575;DHT22;18182;1.328;103.810;2023-04-03T09:43:25;29.40;99.90
31575;DHT22;18182;1.328;103.810;2023-04-03T09:45:52;29.40;99.90
31575;DHT22;18182;1.328;103.810;2023-04-03T09:48:20;29.30;99.90
31575;DHT22;18182;1.328;103.810;2023-04-03T09:53:26;29.30;99.90
31575;DHT22;18182;1.328;103.810;2023-04-03T09:55:53;29.20;99.90
31575;DHT22;18182;1.328;103.810;2023-04-03T09:58:30;29.20;99.90
31575;DHT22;18182;1.328;103.810;2023-04-03T10:00:59;29.20;99.90
31575;DHT22;18182;1.328;103.810;2023-04-03T10:03:30;29.20;99.90
31575;DHT22;18182;1.328;103.810;2023-04-03T10:05:57;29.10;99.90
31575;DHT22;18182;1.328;103.810;2023-04-03T10:08:27;29.20;99.90
31575;DHT22;18182;1.328;103.810;2023-04-03T10:13:35;29.10;99.90
31575;DHT22;18182;1.328;103.810;2023-04-03T10:16:03;29.10;99.90
31575;DHT22;18182;1.328;103.810;2023-04-03T10:20:57;29.00;99.90
31575;DHT22;18182;1.328;103.810;2023-04-03T10:23:26;29.10;99.90
31575;DHT22;18182;1.328;103.810;2023-04-03T10:31:15;29.00;99.90
31575;DHT22;18182;1.328;103.810;2023-04-03T10:36:17;29.00;99.90
31575;DHT22;18182;1.328;103.810;2023-04-03T10:43:45;28.90;99.90
31575;DHT22;18182;1.328;103.810;2023-04-03T10:49:02;29.00;99.90
31575;DHT22;18182;1.328;103.810;2023-04-03T10:54:08;29.00;99.90
31575;DHT22;18182;1.328;103.810;2023-04-03T10:57:01;29.00;99.90
31575;DHT22;18182;1.328;103.810;2023-04-03T11:01:58;28.90;99.90
31575;DHT22;18182;1.328;103.810;2023-04-03T11:04:27;28.90;99.90
31575;DHT22;18182;1.328;103.810;2023-04-03T11:07:00;28.90;99.90
31575;DHT22;18182;1.328;103.810;2023-04-03T11:12:15;28.90;99.90
31575;DHT22;18182;1.328;103.810;2023-04-03T11:14:39;28.90;99.90
31575;DHT22;18182;1.328;103.810;2023-04-03T11:17:11;28.90;99.90
31575;DHT22;18182;1.328;103.810;2023-04-03T11:19:41;28.90;99.90
31575;DHT22;18182;1.328;103.810;2023-04-03T11:22:13;28.90;99.90
31575;DHT22;18182;1.328;103.810;2023-04-03T11:24:42;28.80;99.90
31575;DHT22;18182;1.328;103.810;2023-04-03T11:27:11;28.80;99.90
31575;DHT22;18182;1.328;103.810;2023-04-03T11:29:42;28.80;99.90
31575;DHT22;18182;1.328;103.810;2023-04-03T11:32:13;28.80;99.90
31575;DHT22;18182;1.328;103.810;2023-04-03T11:34:46;28.80;99.90
31575;DHT22;18182;1.328;103.810;2023-04-03T11:37:15;28.70;99.90
31575;DHT22;18182;1.328;103.810;2023-04-03T11:39:47;28.70;99.90
31575;DHT22;18182;1.328;103.810;2023-04-03T11:44:43;28.70;99.90
31575;DHT22;18182;1.328;103.810;2023-04-03T11:47:10;28.70;99.90
31575;DHT22;18182;1.328;103.810;2023-04-03T11:53:10;28.70;99.90
31575;DHT22;18182;1.328;103.810;2023-04-03T12:21:22;28.60;99.90
31575;DHT22;18182;1.328;103.810;2023-04-03T12:24:03;28.60;99.90
31575;DHT22;18182;1.328;103.810;2023-04-03T12:29:49;28.60;99.90
31575;DHT22;18182;1.328;103.810;2023-04-03T12:34:35;28.70;99.90
31575;DHT22;18182;1.328;103.810;2023-04-03T12:37:21;28.60;99.90
31575;DHT22;18182;1.328;103.810;2023-04-03T12:42:32;28.70;99.90
31575;DHT22;18182;1.328;103.810;2023-04-03T12:45:02;28.60;99.90
31575;DHT22;18182;1.328;103.810;2023-04-03T12:47:36;28.70;99.90
31575;DHT22;18182;1.328;103.810;2023-04-03T12:50:13;28.70;99.90
31575;DHT22;18182;1.328;103.810;2023-04-03T12:52:42;28.70;99.90
31575;DHT22;18182;1.328;103.810;2023-04-03T12:55:17;28.70;99.90
31575;DHT22;18182;1.328;103.810;2023-04-03T12:57:44;28.70;99.90
31575;DHT22;18182;1.328;103.810;2023-04-03T13:00:30;28.70;99.90
31575;DHT22;18182;1.328;103.810;2023-04-03T13:02:59;28.70;99.90
31575;DHT22;18182;1.328;103.810;2023-04-03T13:05:25;28.70;99.90
31575;DHT22;18182;1.328;103.810;2023-04-03T13:07:59;28.70;99.90
31575;DHT22;18182;1.328;103.810;2023-04-03T13:10:27;28.60;99.90
31575;DHT22;18182;1.328;103.810;2023-04-03T13:15:24;28.60;99.90
31575;DHT22;18182;1.328;103.810;2023-04-03T13:17:51;28.60;99.90
31575;DHT22;18182;1.328;103.810;2023-04-03T13:20:20;28.70;99.90
31575;DHT22;18182;1.328;103.810;2023-04-03T13:25:15;28.60;99.90
31575;DHT22;18182;1.328;103.810;2023-04-03T13:27:42;28.50;99.90
31575;DHT22;18182;1.328;103.810;2023-04-03T13:30:53;28.40;99.90
31575;DHT22;18182;1.328;103.810;2023-04-03T13:33:03;28.40;99.90
31575;DHT22;18182;1.328;103.810;2023-04-03T13:35:36;28.30;99.90
31575;DHT22;18182;1.328;103.810;2023-04-03T13:38:05;28.30;99.90
31575;DHT22;18182;1.328;103.810;2023-04-03T13:40:31;28.30;99.90
31575;DHT22;18182;1.328;103.810;2023-04-03T13:45:28;28.20;99.90
31575;DHT22;18182;1.328;103.810;2023-04-03T13:48:16;28.20;99.90
31575;DHT22;18182;1.328;103.810;2023-04-03T13:50:57;28.30;99.90
31575;DHT22;18182;1.328;103.810;2023-04-03T13:53:24;28.30;99.90
31575;DHT22;18182;1.328;103.810;2023-04-03T13:55:55;28.30;99.90
31575;DHT22;18182;1.328;103.810;2023-04-03T13:58:24;28.20;99.90
31575;DHT22;18182;1.328;103.810;2023-04-03T14:00:52;28.20;99.90
31575;DHT22;18182;1.328;103.810;2023-04-03T14:03:20;28.20;99.90
31575;DHT22;18182;1.328;103.810;2023-04-03T14:05:47;28.20;99.90
31575;DHT22;18182;1.328;103.810;2023-04-03T14:08:33;28.20;99.90
31575;DHT22;18182;1.328;103.810;2023-04-03T14:11:00;28.20;99.90
31575;DHT22;18182;1.328;103.810;2023-04-03T14:13:26;28.20;99.90
31575;DHT22;18182;1.328;103.810;2023-04-03T14:15:54;28.20;99.90
31575;DHT22;18182;1.328;103.810;2023-04-03T14:18:21;28.20;99.90
31575;DHT22;18182;1.328;103.810;2023-04-03T14:20:47;28.30;99.90
31575;DHT22;18182;1.328;103.810;2023-04-03T14:23:13;28.30;99.90
31575;DHT22;18182;1.328;103.810;2023-04-03T14:25:40;28.30;99.90
31575;DHT22;18182;1.328;103.810;2023-04-03T14:28:17;28.30;99.90
31575;DHT22;18182;1.328;103.810;2023-04-03T14:30:44;28.20;99.90
31575;DHT22;18182;1.328;103.810;2023-04-03T14:33:15;28.30;99.90
31575;DHT22;18182;1.328;103.810;2023-04-03T14:35:42;28.20;99.90
31575;DHT22;18182;1.328;103.810;2023-04-03T14:38:24;28.20;99.90
31575;DHT22;18182;1.328;103.810;2023-04-03T14:40:51;28.20;99.90
31575;DHT22;18182;1.328;103.810;2023-04-03T14:43:17;28.20;99.90
31575;DHT22;18182;1.328;103.810;2023-04-03T14:45:44;28.20;99.90
31575;DHT22;18182;1.328;103.810;2023-04-03T14:48:21;28.30;99.90
31575;DHT22;18182;1.328;103.810;2023-04-03T14:50:47;28.30;99.90
31575;DHT22;18182;1.328;103.810;2023-04-03T14:53:14;28.30;99.90
31575;DHT22;18182;1.328;103.810;2023-04-03T14:55:45;28.30;99.90
31575;DHT22;18182;1.328;103.810;2023-04-03T14:58:15;28.30;99.90
31575;DHT22;18182;1.328;103.810;2023-04-03T15:00:42;28.30;99.90
31575;DHT22;18182;1.328;103.810;2023-04-03T15:03:18;28.30;99.90
31575;DHT22;18182;1.328;103.810;2023-04-03T15:05:45;28.30;99.90
31575;DHT22;18182;1.328;103.810;2023-04-03T15:08:16;28.30;99.90
31575;DHT22;18182;1.328;103.810;2023-04-03T15:10:43;28.20;99.90
31575;DHT22;18182;1.328;103.810;2023-04-03T15:13:10;28.20;99.90
31575;DHT22;18182;1.328;103.810;2023-04-03T15:15:37;28.20;99.90
31575;DHT22;18182;1.328;103.810;2023-04-03T15:18:03;28.20;99.90
31575;DHT22;18182;1.328;103.810;2023-04-03T15:20:30;28.20;99.90
31575;DHT22;18182;1.328;103.810;2023-04-03T15:22:58;28.20;99.90
31575;DHT22;18182;1.328;103.810;2023-04-03T15:25:28;28.20;99.90
31575;DHT22;18182;1.328;103.810;2023-04-03T15:27:55;28.20;99.90
31575;DHT22;18182;1.328;103.810;2023-04-03T15:30:21;28.10;99.90
31575;DHT22;18182;1.328;103.810;2023-04-03T15:32:48;28.20;99.90
31575;DHT22;18182;1.328;103.810;2023-04-03T15:35:14;28.20;99.90
31575;DHT22;18182;1.328;103.810;2023-04-03T15:37:40;28.20;99.90
31575;DHT22;18182;1.328;103.810;2023-04-03T15:40:07;28.20;99.90
31575;DHT22;18182;1.328;103.810;2023-04-03T15:42:33;28.20;99.90
31575;DHT22;18182;1.328;103.810;2023-04-03T15:44:59;28.10;99.90
31575;DHT22;18182;1.328;103.810;2023-04-03T15:47:26;28.10;99.90
31575;DHT22;18182;1.328;103.810;2023-04-03T15:49:53;28.10;99.90
31575;DHT22;18182;1.328;103.810;2023-04-03T15:52:20;28.10;99.90
31575;DHT22;18182;1.328;103.810;2023-04-03T15:54:46;28.10;99.90
31575;DHT22;18182;1.328;103.810;2023-04-03T15:57:12;28.10;99.90
31575;DHT22;18182;1.328;103.810;2023-04-03T15:59:38;28.10;99.90
31575;DHT22;18182;1.328;103.810;2023-04-03T16:02:05;28.20;99.90
31575;DHT22;18182;1.328;103.810;2023-04-03T16:04:32;28.20;99.90
31575;DHT22;18182;1.328;103.810;2023-04-03T16:07:00;28.10;99.90
31575;DHT22;18182;1.328;103.810;2023-04-03T16:09:28;28.10;99.90
31575;DHT22;18182;1.328;103.810;2023-04-03T16:11:54;28.20;99.90
31575;DHT22;18182;1.328;103.810;2023-04-03T16:14:21;28.20;99.90
31575;DHT22;18182;1.328;103.810;2023-04-03T16:16:47;28.20;99.90
31575;DHT22;18182;1.328;103.810;2023-04-03T16:19:14;28.20;99.90
31575;DHT22;18182;1.328;103.810;2023-04-03T16:21:40;28.20;99.90
31575;DHT22;18182;1.328;103.810;2023-04-03T16:24:06;28.20;99.90
31575;DHT22;18182;1.328;103.810;2023-04-03T16:26:32;28.20;99.90
31575;DHT22;18182;1.328;103.810;2023-04-03T16:28:58;28.20;99.90
31575;DHT22;18182;1.328;103.810;2023-04-03T16:31:25;28.20;99.90
31575;DHT22;18182;1.328;103.810;2023-04-03T16:33:51;28.20;99.90
31575;DHT22;18182;1.328;103.810;2023-04-03T16:36:17;28.30;99.90
31575;DHT22;18182;1.328;103.810;2023-04-03T16:38:44;28.20;99.90
31575;DHT22;18182;1.328;103.810;2023-04-03T16:41:11;28.20;99.90
31575;DHT22;18182;1.328;103.810;2023-04-03T16:43:37;28.20;99.90
31575;DHT22;18182;1.328;103.810;2023-04-03T16:46:03;28.20;99.90
31575;DHT22;18182;1.328;103.810;2023-04-03T16:48:30;28.20;99.90
31575;DHT22;18182;1.328;103.810;2023-04-03T16:50:56;28.20;99.90
31575;DHT22;18182;1.328;103.810;2023-04-03T16:53:23;28.10;99.90
31575;DHT22;18182;1.328;103.810;2023-04-03T16:55:49;28.10;99.90
31575;DHT22;18182;1.328;103.810;2023-04-03T16:58:16;28.20;99.90